createdAt,value
2023-04-30T00:02:20.401Z,101097.66
2023-04-30T00:04:47.211Z,101091.50
2023-04-30T00:07:14.507Z,101090.56
2023-04-30T00:09:41.299Z,101094.06
2023-04-30T00:12:07.876Z,101099.19
2023-04-30T00:14:34.915Z,101093.06
2023-04-30T00:17:01.672Z,101100.53
2023-04-30T00:19:28.347Z,101098.72
2023-04-30T00:21:55.012Z,101091.44
2023-04-30T00:24:21.739Z,101104.16
2023-04-30T00:26:48.529Z,101090.88
2023-04-30T00:29:15.205Z,101094.25
2023-04-30T00:31:42.035Z,101098.13
2023-04-30T00:34:08.760Z,101092.00
2023-04-30T00:36:35.649Z,101093.88
2023-04-30T00:39:02.260Z,101092.81
2023-04-30T00:41:30.525Z,101081.50
2023-04-30T00:43:57.165Z,101093.31
2023-04-30T00:46:23.935Z,101092.06
2023-04-30T00:48:50.891Z,101083.16
2023-04-30T00:51:17.613Z,101081.44
2023-04-30T00:53:44.485Z,101090.59
2023-04-30T00:56:12.822Z,101095.44
2023-04-30T00:58:40.248Z,101093.44
2023-04-30T01:01:07.162Z,101090.34
2023-04-30T01:03:36.328Z,101088.38
2023-04-30T01:06:03.493Z,101078.03
2023-04-30T01:08:32.079Z,101074.94
2023-04-30T01:11:17.547Z,101071.00
2023-04-30T01:13:58.523Z,101082.81
2023-04-30T01:16:33.572Z,101078.78
2023-04-30T01:19:20.567Z,101076.78
2023-04-30T01:21:49.232Z,101073.22
2023-04-30T01:24:42.189Z,101068.69
2023-04-30T01:27:14.881Z,101073.69
2023-04-30T01:29:43.512Z,101065.25
2023-04-30T01:32:11.397Z,101066.41
2023-04-30T01:34:38.352Z,101067.94
2023-04-30T01:38:00.169Z,101066.22
2023-04-30T01:40:43.090Z,101063.69
2023-04-30T01:43:23.552Z,101055.09
2023-04-30T01:46:01.721Z,101048.19
2023-04-30T01:48:43.872Z,101044.03
2023-04-30T01:51:20.935Z,101054.22
2023-04-30T01:53:47.884Z,101046.38
2023-04-30T01:56:40.023Z,101035.97
2023-04-30T01:59:08.485Z,101029.94
2023-04-30T02:01:35.957Z,101039.88
2023-04-30T02:04:03.839Z,101035.97
2023-04-30T02:06:31.474Z,101027.19
2023-04-30T02:09:06.228Z,101025.91
2023-04-30T02:11:32.877Z,101033.06
2023-04-30T02:13:59.457Z,101023.47
2023-04-30T02:16:26.107Z,101022.19
2023-04-30T02:18:52.834Z,101010.75
2023-04-30T02:21:19.499Z,101015.94
2023-04-30T02:23:46.095Z,101012.81
2023-04-30T02:26:12.740Z,101007.16
2023-04-30T02:28:39.463Z,101009.81
2023-04-30T02:31:06.182Z,101011.69
2023-04-30T02:33:32.833Z,101003.69
2023-04-30T02:36:00.820Z,101016.31
2023-04-30T02:38:27.645Z,101009.03
2023-04-30T02:40:54.369Z,101001.03
2023-04-30T02:43:21.062Z,101008.09
2023-04-30T02:45:49.454Z,101003.59
2023-04-30T02:48:16.210Z,100998.75
2023-04-30T02:50:42.834Z,101000.72
2023-04-30T02:53:09.447Z,100998.19
2023-04-30T02:55:36.078Z,101000.03
2023-04-30T02:58:02.967Z,100992.41
2023-04-30T03:00:38.655Z,100996.22
2023-04-30T03:03:05.453Z,100985.13
2023-04-30T03:05:32.186Z,100986.28
2023-04-30T03:07:58.812Z,100989.06
2023-04-30T03:10:25.511Z,100978.78
2023-04-30T03:12:53.880Z,100983.50
2023-04-30T03:15:20.526Z,100982.00
2023-04-30T03:17:47.245Z,100979.22
2023-04-30T03:20:14.391Z,100985.59
2023-04-30T03:22:41.816Z,100985.91
2023-04-30T03:25:09.202Z,100978.78
2023-04-30T03:27:35.878Z,100982.00
2023-04-30T03:30:02.536Z,100988.38
2023-04-30T03:32:29.148Z,100978.41
2023-04-30T03:34:55.932Z,100978.91
2023-04-30T03:37:22.534Z,100981.19
2023-04-30T03:39:49.163Z,100977.28
2023-04-30T03:42:16.077Z,100969.41
2023-04-30T03:44:42.740Z,100974.25
2023-04-30T03:47:09.635Z,100975.06
2023-04-30T03:49:36.318Z,100974.25
2023-04-30T03:52:03.630Z,100973.13
2023-04-30T03:54:30.558Z,100968.47
2023-04-30T03:56:57.775Z,100971.25
2023-04-30T03:59:24.479Z,100957.81
2023-04-30T04:01:51.879Z,100954.72
2023-04-30T04:04:18.731Z,100961.88
2023-04-30T04:06:45.504Z,100962.81
2023-04-30T04:09:12.220Z,100958.06
2023-04-30T04:11:38.894Z,100960.03
2023-04-30T04:14:05.714Z,100960.84
2023-04-30T04:16:32.428Z,100959.66
2023-04-30T04:18:59.202Z,100964.41
2023-04-30T04:21:25.889Z,100964.06
2023-04-30T04:23:52.598Z,100964.06
2023-04-30T04:26:21.643Z,100959.78
2023-04-30T04:28:48.488Z,100962.19
2023-04-30T04:31:15.217Z,100959.91
2023-04-30T04:33:41.916Z,100963.13
2023-04-30T04:36:08.672Z,100956.41
2023-04-30T04:38:35.423Z,100950.84
2023-04-30T04:41:02.129Z,100944.97
2023-04-30T04:43:28.875Z,100950.16
2023-04-30T04:45:55.586Z,100949.00
2023-04-30T04:48:22.185Z,100949.47
2023-04-30T04:50:48.861Z,100949.47
2023-04-30T04:53:15.477Z,100935.59
2023-04-30T04:55:42.154Z,100945.97
2023-04-30T04:58:08.812Z,100948.31
2023-04-30T05:00:35.694Z,100943.66
2023-04-30T05:03:02.443Z,100946.91
2023-04-30T05:05:29.164Z,100934.63
2023-04-30T05:07:56.063Z,100936.59
2023-04-30T05:10:22.727Z,100935.81
2023-04-30T05:12:49.299Z,100938.22
2023-04-30T05:15:15.899Z,100946.91
2023-04-30T05:17:42.667Z,100942.25
2023-04-30T05:20:10.081Z,100940.75
2023-04-30T05:22:36.689Z,100936.00
2023-04-30T05:25:03.555Z,100942.38
2023-04-30T05:27:30.442Z,100945.16
2023-04-30T05:29:57.296Z,100941.56
2023-04-30T05:32:24.152Z,100938.53
2023-04-30T05:34:50.930Z,100941.31
2023-04-30T05:37:19.506Z,100944.53
2023-04-30T05:39:46.750Z,100935.41
2023-04-30T05:42:13.474Z,100934.59
2023-04-30T05:44:40.984Z,100940.63
2023-04-30T05:47:07.758Z,100938.72
2023-04-30T05:49:36.028Z,100939.53
2023-04-30T05:52:03.769Z,100940.34
2023-04-30T05:54:31.438Z,100934.91
2023-04-30T05:56:58.620Z,100935.00
2023-04-30T05:59:26.083Z,100936.63
2023-04-30T06:01:55.373Z,100939.50
2023-04-30T06:04:22.050Z,100939.16
2023-04-30T06:06:48.804Z,100939.16
2023-04-30T06:09:16.123Z,100941.66
2023-04-30T06:11:43.091Z,100942.59
2023-04-30T06:14:10.506Z,100943.03
2023-04-30T06:16:37.997Z,100951.38
2023-04-30T06:19:04.636Z,100942.66
2023-04-30T06:21:31.931Z,100952.63
2023-04-30T06:23:58.628Z,100941.16
2023-04-30T06:26:25.337Z,100944.84
2023-04-30T06:28:52.096Z,100951.66
2023-04-30T06:31:18.853Z,100945.75
2023-04-30T06:33:45.669Z,100944.66
2023-04-30T06:36:12.327Z,100958.22
2023-04-30T06:38:39.051Z,100961.44
2023-04-30T06:41:05.816Z,100955.88
2023-04-30T06:43:32.438Z,100951.97
2023-04-30T06:45:59.161Z,100957.97
2023-04-30T06:48:25.949Z,100964.78
2023-04-30T06:50:59.740Z,100968.09
2023-04-30T06:53:26.532Z,100960.31
2023-04-30T06:55:53.220Z,100963.25
2023-04-30T06:58:19.920Z,100959.72
2023-04-30T07:00:46.648Z,100955.88
2023-04-30T07:03:14.060Z,100956.88
2023-04-30T07:05:41.631Z,100957.41
2023-04-30T07:08:08.266Z,100964.25
2023-04-30T07:10:34.915Z,100954.91
2023-04-30T07:13:01.532Z,100955.06
2023-04-30T07:15:28.151Z,100962.44
2023-04-30T07:17:55.252Z,100958.13
2023-04-30T07:20:22.019Z,100960.09
2023-04-30T07:22:48.731Z,100958.50
2023-04-30T07:25:15.643Z,100970.59
2023-04-30T07:27:42.322Z,100960.44
2023-04-30T07:30:10.454Z,100955.75
2023-04-30T07:32:38.669Z,100965.00
2023-04-30T07:35:06.289Z,100966.38
2023-04-30T07:37:35.431Z,100972.97
2023-04-30T07:40:03.654Z,100983.47
2023-04-30T07:42:30.318Z,100970.50
2023-04-30T07:44:57.527Z,100966.91
2023-04-30T07:47:25.502Z,100984.44
2023-04-30T07:49:52.296Z,100983.84
2023-04-30T07:52:18.939Z,100977.09
2023-04-30T07:54:45.685Z,100982.91
2023-04-30T07:57:13.060Z,100988.56
2023-04-30T07:59:39.735Z,100983.78
2023-04-30T08:02:07.100Z,100984.53
2023-04-30T08:04:33.946Z,100984.53
2023-04-30T08:07:01.889Z,100984.69
2023-04-30T08:09:28.556Z,100988.78
2023-04-30T08:11:55.241Z,100987.31
2023-04-30T08:14:22.078Z,100980.28
2023-04-30T08:16:48.736Z,100985.97
2023-04-30T08:19:15.525Z,100993.19
2023-04-30T08:21:42.290Z,100989.06
2023-04-30T08:24:08.969Z,100999.47
2023-04-30T08:26:35.699Z,100994.03
2023-04-30T08:29:02.697Z,100983.47
2023-04-30T08:31:29.373Z,100988.13
2023-04-30T08:33:56.136Z,100986.94
2023-04-30T08:36:23.868Z,100998.81
2023-04-30T08:38:50.652Z,100995.50
2023-04-30T08:41:17.618Z,100993.88
2023-04-30T08:43:45.302Z,100993.09
2023-04-30T08:46:17.182Z,101004.47
2023-04-30T08:48:45.085Z,100994.69
2023-04-30T08:51:11.860Z,101003.97
2023-04-30T08:53:38.979Z,101002.38
2023-04-30T08:56:06.011Z,101002.78
2023-04-30T08:58:32.865Z,101006.34
2023-04-30T09:01:00.329Z,100999.97
2023-04-30T09:03:28.513Z,101005.53
2023-04-30T09:05:55.472Z,101002.31
2023-04-30T09:08:45.038Z,100996.69
2023-04-30T09:11:22.922Z,100996.69
2023-04-30T09:13:54.645Z,100999.09
2023-04-30T09:16:22.025Z,101003.09
2023-04-30T09:18:48.986Z,100998.47
2023-04-30T09:21:16.168Z,101001.25
2023-04-30T09:24:04.006Z,101009.25
2023-04-30T09:26:36.631Z,100997.47
2023-04-30T09:29:08.182Z,100998.06
2023-04-30T09:31:36.360Z,101003.06
2023-04-30T09:34:04.180Z,101003.03
2023-04-30T09:36:31.841Z,100995.09
2023-04-30T09:39:09.845Z,100996.97
2023-04-30T09:41:37.912Z,101001.63
2023-04-30T09:44:04.747Z,101002.94
2023-04-30T09:46:33.311Z,100995.13
2023-04-30T09:49:01.826Z,100997.94
2023-04-30T09:51:28.859Z,101004.72
2023-04-30T09:53:56.504Z,101002.16
2023-04-30T09:56:25.114Z,100998.94
2023-04-30T09:58:53.972Z,101008.78
2023-04-30T10:01:27.261Z,101006.34
2023-04-30T10:03:54.115Z,101008.75
2023-04-30T10:06:22.077Z,101011.19
2023-04-30T10:08:53.269Z,101008.78
2023-04-30T10:11:21.992Z,101009.50
2023-04-30T10:14:17.969Z,101009.38
2023-04-30T10:16:54.889Z,101016.00
2023-04-30T10:19:33.954Z,101008.75
2023-04-30T10:22:02.189Z,101003.94
2023-04-30T10:24:29.234Z,101007.59
2023-04-30T10:26:58.672Z,100992.59
2023-04-30T10:29:25.438Z,101011.63
2023-04-30T10:31:53.155Z,100994.09
2023-04-30T10:34:55.440Z,100991.50
2023-04-30T10:37:40.249Z,100997.44
2023-04-30T10:40:09.261Z,101001.22
2023-04-30T10:42:36.758Z,100999.22
2023-04-30T10:45:04.109Z,100995.53
2023-04-30T10:47:31.488Z,100991.91
2023-04-30T10:50:05.384Z,100993.06
2023-04-30T10:52:32.091Z,100989.41
2023-04-30T10:54:58.807Z,100990.13
2023-04-30T10:57:29.828Z,100985.28
2023-04-30T11:00:09.930Z,100978.53
2023-04-30T11:02:44.927Z,100980.19
2023-04-30T11:05:13.504Z,100981.44
2023-04-30T11:08:11.277Z,100969.03
2023-04-30T11:10:38.195Z,100970.22
2023-04-30T11:13:06.998Z,100967.81
2023-04-30T11:15:39.541Z,100958.53
2023-04-30T11:18:08.739Z,100964.53
2023-04-30T11:20:41.822Z,100960.53
2023-04-30T11:23:17.451Z,100958.94
2023-04-30T11:25:55.298Z,100966.97
2023-04-30T11:28:25.631Z,100954.19
2023-04-30T11:30:57.204Z,100954.19
2023-04-30T11:33:26.978Z,100953.00
2023-04-30T11:35:55.891Z,100954.59
2023-04-30T11:38:27.478Z,100955.00
2023-04-30T11:40:55.025Z,100939.75
2023-04-30T11:43:29.222Z,100941.34
2023-04-30T11:46:13.432Z,100932.50
2023-04-30T11:48:45.243Z,100940.53
2023-04-30T11:51:15.870Z,100937.34
2023-04-30T11:53:42.944Z,100935.69
2023-04-30T11:56:09.867Z,100937.22
2023-04-30T11:58:40.587Z,100946.75
2023-04-30T12:01:09.877Z,100949.69
2023-04-30T12:03:46.836Z,100943.38
2023-04-30T12:06:32.427Z,100942.41
2023-04-30T12:09:01.728Z,100936.13
2023-04-30T12:11:30.756Z,100934.97
2023-04-30T12:14:03.637Z,100937.94
2023-04-30T12:16:51.027Z,100939.63
2023-04-30T12:19:19.372Z,100940.81
2023-04-30T12:21:47.589Z,100947.25
2023-04-30T12:24:15.475Z,100949.63
2023-04-30T12:26:42.700Z,100935.13
2023-04-30T12:29:13.598Z,100934.66
2023-04-30T12:31:42.678Z,100939.50
2023-04-30T12:34:12.829Z,100943.88
2023-04-30T12:36:44.021Z,100943.53
2023-04-30T12:39:11.698Z,100943.53
2023-04-30T12:41:43.755Z,100944.81
2023-04-30T12:44:16.287Z,100936.09
2023-04-30T12:46:43.750Z,100924.38
2023-04-30T12:49:11.440Z,100934.31
2023-04-30T12:51:42.021Z,100917.22
2023-04-30T12:54:08.958Z,100916.13
2023-04-30T12:56:35.665Z,100915.06
2023-04-30T12:59:02.390Z,100907.53
2023-04-30T13:01:29.418Z,100905.59
2023-04-30T13:03:56.543Z,100911.63
2023-04-30T13:06:23.777Z,100906.41
2023-04-30T13:08:58.646Z,100916.00
2023-04-30T13:11:27.128Z,100926.88
2023-04-30T13:13:55.920Z,100927.72
2023-04-30T13:16:24.605Z,100917.69
2023-04-30T13:18:52.071Z,100909.28
2023-04-30T13:21:18.695Z,100922.91
2023-04-30T13:23:52.846Z,100918.06
2023-04-30T13:26:21.498Z,100919.63
2023-04-30T13:28:48.175Z,100917.22
2023-04-30T13:31:14.904Z,100920.03
2023-04-30T13:33:41.722Z,100947.75
2023-04-30T13:36:08.437Z,100950.56
2023-04-30T13:38:36.006Z,100940.38
2023-04-30T13:41:02.696Z,100919.00
2023-04-30T13:43:29.295Z,100917.63
2023-04-30T13:45:56.117Z,100918.97
2023-04-30T13:48:22.865Z,100928.31
2023-04-30T13:50:49.939Z,100933.91
2023-04-30T13:53:16.667Z,100943.47
2023-04-30T13:55:43.423Z,100945.72
2023-04-30T13:58:10.137Z,100944.75
2023-04-30T14:00:36.971Z,100936.56
2023-04-30T14:03:06.395Z,100928.66
2023-04-30T14:05:36.479Z,100933.38
2023-04-30T14:08:05.813Z,100918.50
2023-04-30T14:10:34.889Z,100924.56
2023-04-30T14:13:01.650Z,100922.66
2023-04-30T14:15:30.755Z,100913.59
2023-04-30T14:17:57.516Z,100927.91
2023-04-30T14:20:25.248Z,100930.22
2023-04-30T14:22:52.661Z,100923.94
2023-04-30T14:25:19.797Z,100921.25
2023-04-30T14:27:47.526Z,100914.03
2023-04-30T14:30:14.787Z,100922.03
2023-04-30T14:32:41.547Z,100925.25
2023-04-30T14:35:09.751Z,100922.50
2023-04-30T14:37:36.632Z,100917.25
2023-04-30T14:40:05.219Z,100919.63
2023-04-30T14:42:32.146Z,100916.34
2023-04-30T14:44:58.797Z,100909.56
2023-04-30T14:47:27.446Z,100913.63
2023-04-30T14:49:54.507Z,100906.03
2023-04-30T14:52:21.478Z,100906.03
2023-04-30T14:54:48.195Z,100900.03
2023-04-30T14:57:15.141Z,100903.63
2023-04-30T14:59:42.025Z,100896.41
2023-04-30T15:02:09.481Z,100897.59
2023-04-30T15:04:36.410Z,100897.22
2023-04-30T15:07:03.043Z,100896.41
2023-04-30T15:09:29.995Z,100893.19
2023-04-30T15:11:57.246Z,100894.34
2023-04-30T15:14:24.012Z,100888.19
2023-04-30T15:16:51.286Z,100884.06
2023-04-30T15:19:18.100Z,100873.78
2023-04-30T15:21:46.880Z,100880.72
2023-04-30T15:24:16.096Z,100878.78
2023-04-30T15:26:45.845Z,100873.53
2023-04-30T15:29:12.537Z,100880.72
2023-04-30T15:31:39.239Z,100869.50
2023-04-30T15:34:06.059Z,100863.53
2023-04-30T15:36:33.299Z,100855.91
2023-04-30T15:39:00.188Z,100853.47
2023-04-30T15:41:26.834Z,100840.25
2023-04-30T15:43:53.688Z,100844.25
2023-04-30T15:46:20.469Z,100842.66
2023-04-30T15:48:47.133Z,100845.03
2023-04-30T15:51:13.773Z,100846.63
2023-04-30T15:53:40.379Z,100840.63
2023-04-30T15:56:07.356Z,100845.88
2023-04-30T15:58:34.067Z,100847.09
2023-04-30T16:01:02.012Z,100841.88
2023-04-30T16:03:28.857Z,100850.59
2023-04-30T16:05:55.704Z,100846.44
2023-04-30T16:08:22.431Z,100848.47
2023-04-30T16:10:49.119Z,100845.75
2023-04-30T16:13:15.892Z,100845.03
2023-04-30T16:15:42.591Z,100841.09
2023-04-30T16:18:10.166Z,100843.47
2023-04-30T16:20:37.438Z,100843.88
2023-04-30T16:23:04.892Z,100865.84
2023-04-30T16:25:31.764Z,100869.88
2023-04-30T16:27:58.818Z,100863.44
2023-04-30T16:30:25.790Z,100863.34
2023-04-30T16:32:52.719Z,100862.13
2023-04-30T16:35:19.637Z,100864.84
2023-04-30T16:37:46.273Z,100870.03
2023-04-30T16:40:13.039Z,100871.63
2023-04-30T16:42:39.673Z,100864.88
2023-04-30T16:45:06.958Z,100872.59
2023-04-30T16:47:33.685Z,100876.16
2023-04-30T16:50:00.663Z,100875.75
2023-04-30T16:52:28.290Z,100877.78
2023-04-30T16:54:54.930Z,100889.84
2023-04-30T16:57:23.845Z,100879.47
2023-04-30T16:59:50.880Z,100875.53
2023-04-30T17:02:18.459Z,100877.94
2023-04-30T17:04:45.163Z,100871.94
2023-04-30T17:07:12.795Z,100882.78
2023-04-30T17:09:39.487Z,100880.38
2023-04-30T17:12:06.192Z,100884.75
2023-04-30T17:14:32.864Z,100880.38
2023-04-30T17:16:59.584Z,100881.59
2023-04-30T17:19:26.395Z,100885.97
2023-04-30T17:21:53.130Z,100879.53
2023-04-30T17:24:19.789Z,100878.69
2023-04-30T17:26:46.434Z,100876.97
2023-04-30T17:29:13.672Z,100876.47
2023-04-30T17:31:40.806Z,100877.94
2023-04-30T17:34:07.989Z,100867.50
2023-04-30T17:36:34.947Z,100866.75
2023-04-30T17:39:05.632Z,100874.41
2023-04-30T17:41:32.845Z,100870.06
2023-04-30T17:43:59.910Z,100875.72
2023-04-30T17:46:26.806Z,100880.16
2023-04-30T17:48:53.836Z,100873.78
2023-04-30T17:51:20.637Z,100875.84
2023-04-30T17:53:47.316Z,100871.47
2023-04-30T17:56:13.984Z,100865.84
2023-04-30T17:58:40.668Z,100869.84
2023-04-30T18:01:08.083Z,100873.84
2023-04-30T18:03:36.618Z,100876.97
2023-04-30T18:06:03.954Z,100873.31
2023-04-30T18:08:30.923Z,100870.88
2023-04-30T18:10:58.391Z,100876.38
2023-04-30T18:13:27.423Z,100887.47
2023-04-30T18:15:54.360Z,100886.16
2023-04-30T18:18:21.346Z,100882.81
2023-04-30T18:20:48.014Z,100884.25
2023-04-30T18:23:15.037Z,100883.31
2023-04-30T18:25:43.629Z,100883.97
2023-04-30T18:28:10.488Z,100894.59
2023-04-30T18:30:37.626Z,100895.63
2023-04-30T18:33:06.340Z,100901.94
2023-04-30T18:35:34.044Z,100906.72
2023-04-30T18:38:01.931Z,100909.69
2023-04-30T18:40:28.964Z,100909.81
2023-04-30T18:42:56.938Z,100919.94
2023-04-30T18:45:23.964Z,100917.69
2023-04-30T18:47:50.938Z,100932.13
2023-04-30T18:50:18.120Z,100931.16
2023-04-30T18:52:45.209Z,100923.47
2023-04-30T18:55:13.939Z,100932.56
2023-04-30T18:57:42.440Z,100926.84
2023-04-30T19:00:10.499Z,100929.53
2023-04-30T19:02:37.413Z,100932.63
2023-04-30T19:05:04.965Z,100919.44
2023-04-30T19:07:31.680Z,100919.84
2023-04-30T19:09:58.549Z,100921.47
2023-04-30T19:12:25.475Z,100927.06
2023-04-30T19:14:52.075Z,100932.56
2023-04-30T19:17:21.492Z,100927.78
2023-04-30T19:19:50.247Z,100930.81
2023-04-30T19:22:17.465Z,100945.88
2023-04-30T19:24:44.246Z,100943.41
2023-04-30T19:27:11.965Z,100950.44
2023-04-30T19:29:39.719Z,100944.25
2023-04-30T19:32:06.796Z,100946.09
2023-04-30T19:34:34.526Z,100944.78
2023-04-30T19:37:01.463Z,100937.13
2023-04-30T19:39:34.441Z,100937.44
2023-04-30T19:42:01.664Z,100940.66
2023-04-30T19:44:29.526Z,100940.19
2023-04-30T19:46:56.597Z,100943.31
2023-04-30T19:49:26.052Z,100948.44
2023-04-30T19:51:53.806Z,100946.81
2023-04-30T19:54:20.625Z,100948.31
2023-04-30T19:56:47.497Z,100950.94
2023-04-30T19:59:14.696Z,100948.16
2023-04-30T20:01:42.487Z,100947.41
2023-04-30T20:04:10.334Z,100951.31
2023-04-30T20:06:37.115Z,100956.44
2023-04-30T20:09:04.157Z,100964.34
2023-04-30T20:11:30.948Z,100963.47
2023-04-30T20:13:57.778Z,100962.91
2023-04-30T20:16:25.736Z,100967.09
2023-04-30T20:18:52.446Z,100978.28
2023-04-30T20:21:20.620Z,100972.00
2023-04-30T20:23:47.460Z,100970.03
2023-04-30T20:26:14.905Z,100972.91
2023-04-30T20:28:41.573Z,100983.13
2023-04-30T20:31:10.109Z,100972.19
2023-04-30T20:33:36.908Z,100968.53
2023-04-30T20:36:03.770Z,100969.97
2023-04-30T20:38:30.506Z,100981.78
2023-04-30T20:40:58.671Z,100978.53
2023-04-30T20:43:25.363Z,100974.59
2023-04-30T20:45:52.386Z,100993.78
2023-04-30T20:48:19.149Z,100999.72
2023-04-30T20:50:46.269Z,100994.06
2023-04-30T20:53:14.242Z,101000.91
2023-04-30T20:55:41.258Z,101001.53
2023-04-30T20:58:09.238Z,101006.22
2023-04-30T21:00:36.417Z,101007.75
2023-04-30T21:03:03.348Z,101011.88
2023-04-30T21:05:30.325Z,101014.66
2023-04-30T21:08:01.598Z,101007.59
2023-04-30T21:10:35.618Z,101010.25
2023-04-30T21:13:05.298Z,101006.41
2023-04-30T21:15:34.456Z,101005.59
2023-04-30T21:18:01.395Z,101004.31
2023-04-30T21:20:31.420Z,101009.88
2023-04-30T21:22:58.304Z,101006.28
2023-04-30T21:25:24.950Z,101006.56
2023-04-30T21:27:52.248Z,100997.44
2023-04-30T21:30:19.183Z,101003.00
2023-04-30T21:32:49.297Z,101001.91
2023-04-30T21:35:16.149Z,101001.81
2023-04-30T21:37:42.908Z,101008.81
2023-04-30T21:40:10.137Z,101003.50
2023-04-30T21:42:36.775Z,101000.66
2023-04-30T21:45:03.635Z,100997.06
2023-04-30T21:47:30.607Z,101000.66
2023-04-30T21:49:58.664Z,101003.88
2023-04-30T21:52:25.778Z,101004.69
2023-04-30T21:54:52.546Z,100999.56
2023-04-30T21:57:19.598Z,101002.34
2023-04-30T21:59:46.410Z,101002.25
2023-04-30T22:04:46.874Z,101003.44
2023-04-30T22:07:13.527Z,100996.25
2023-04-30T22:09:40.490Z,101005.28
2023-04-30T22:12:08.456Z,101002.97
2023-04-30T22:14:35.414Z,101001.97
2023-04-30T22:17:02.183Z,101013.00
2023-04-30T22:19:28.848Z,101008.16
2023-04-30T22:21:55.559Z,101017.66
2023-04-30T22:24:22.411Z,101014.88
2023-04-30T22:26:49.134Z,101023.88
2023-04-30T22:29:16.112Z,101020.88
2023-04-30T22:31:43.688Z,101024.03
2023-04-30T22:34:10.622Z,101027.84
2023-04-30T22:36:37.307Z,101026.03
2023-04-30T22:39:04.607Z,101023.50
2023-04-30T22:41:34.183Z,101027.88
2023-04-30T22:44:05.640Z,101031.03
2023-04-30T22:46:34.855Z,101019.81
2023-04-30T22:49:04.546Z,101028.13
2023-04-30T22:51:31.922Z,101017.72
2023-04-30T22:53:58.825Z,101026.44
2023-04-30T22:56:25.710Z,101026.06
2023-04-30T22:58:55.228Z,101020.50
2023-04-30T23:01:22.575Z,101024.22
2023-04-30T23:03:49.487Z,101020.72
2023-04-30T23:06:16.266Z,101021.88
2023-04-30T23:08:43.062Z,101025.91
2023-04-30T23:11:09.774Z,101023.59
2023-04-30T23:13:36.421Z,101015.94
2023-04-30T23:16:05.639Z,101029.41
2023-04-30T23:18:32.464Z,101020.97
2023-04-30T23:20:59.264Z,101018.44
2023-04-30T23:23:26.894Z,101033.75
2023-04-30T23:25:54.809Z,101030.75
2023-04-30T23:28:22.185Z,101028.22
2023-04-30T23:30:55.141Z,101024.19
2023-04-30T23:33:22.167Z,101024.53
2023-04-30T23:35:49.183Z,101023.16
2023-04-30T23:38:16.409Z,101023.16
2023-04-30T23:40:43.384Z,101022.28
2023-04-30T23:43:10.514Z,101028.53
2023-04-30T23:45:41.358Z,101024.47
2023-04-30T23:48:09.187Z,101022.97
2023-04-30T23:50:36.536Z,101025.63
2023-04-30T23:53:03.425Z,101022.72
2023-04-30T23:55:30.148Z,101026.22
2023-04-30T23:57:56.758Z,101024.59
